createdAt,value
2023-05-20T00:01:01.597Z,30.30
2023-05-20T00:03:29.661Z,30.69
2023-05-20T00:05:56.526Z,30.63
2023-05-20T00:08:23.403Z,30.91
2023-05-20T00:10:50.437Z,30.15
2023-05-20T00:13:17.128Z,30.51
2023-05-20T00:15:43.738Z,30.68
2023-05-20T00:18:10.523Z,30.98
2023-05-20T00:20:37.155Z,30.68
2023-05-20T00:23:03.726Z,30.88
2023-05-20T00:25:31.697Z,31.67
2023-05-20T00:27:58.519Z,30.80
2023-05-20T00:30:25.119Z,30.32
2023-05-20T00:32:51.817Z,30.62
2023-05-20T00:35:18.384Z,31.01
2023-05-20T00:37:45.446Z,31.47
2023-05-20T00:40:14.868Z,31.55
2023-05-20T00:42:42.621Z,31.32
2023-05-20T00:45:09.782Z,31.30
2023-05-20T00:47:37.204Z,30.93
2023-05-20T00:50:04.239Z,30.46
2023-05-20T00:52:32.744Z,30.17
2023-05-20T00:54:59.934Z,30.37
2023-05-20T00:57:27.154Z,30.27
2023-05-20T00:59:54.294Z,30.29
2023-05-20T01:02:21.370Z,30.64
2023-05-20T01:04:48.566Z,30.44
2023-05-20T01:07:17.190Z,30.18
2023-05-20T01:09:44.561Z,30.54
2023-05-20T01:12:29.813Z,30.81
2023-05-20T01:15:12.963Z,30.63
2023-05-20T01:17:47.514Z,31.17
2023-05-20T01:20:15.393Z,30.52
2023-05-20T01:22:55.930Z,31.12
2023-05-20T01:25:25.081Z,30.68
2023-05-20T01:27:52.909Z,30.74
2023-05-20T01:30:21.530Z,30.64
2023-05-20T01:32:53.945Z,31.56
2023-05-20T01:35:23.106Z,31.24
2023-05-20T01:37:52.120Z,31.09
2023-05-20T01:40:20.285Z,30.63
2023-05-20T01:42:52.837Z,31.43
2023-05-20T01:45:19.995Z,31.25
2023-05-20T01:47:47.289Z,30.93
2023-05-20T01:50:14.116Z,30.83
2023-05-20T01:52:40.762Z,31.53
2023-05-20T01:55:07.738Z,31.38
2023-05-20T01:57:34.378Z,31.47
2023-05-20T02:00:02.011Z,31.65
2023-05-20T02:02:40.492Z,31.41
2023-05-20T02:05:09.976Z,31.50
2023-05-20T02:07:36.592Z,32.02
2023-05-20T02:10:03.922Z,31.89
2023-05-20T02:12:30.754Z,31.81
2023-05-20T02:14:58.172Z,31.40
2023-05-20T02:17:24.763Z,31.59
2023-05-20T02:19:51.458Z,31.98
2023-05-20T02:22:18.587Z,32.13
2023-05-20T02:24:45.923Z,31.90
2023-05-20T02:27:13.270Z,32.07
2023-05-20T02:29:40.095Z,33.38
2023-05-20T02:32:06.852Z,32.11
2023-05-20T02:34:33.709Z,32.07
2023-05-20T02:37:01.123Z,31.95
2023-05-20T02:39:29.496Z,31.77
2023-05-20T02:41:56.381Z,31.27
2023-05-20T02:44:23.164Z,31.87
2023-05-20T02:46:50.443Z,31.39
2023-05-20T02:49:17.099Z,32.52
2023-05-20T02:51:43.857Z,32.36
2023-05-20T02:54:10.879Z,32.65
2023-05-20T02:56:38.022Z,31.99
2023-05-20T02:59:07.219Z,33.18
2023-05-20T03:01:35.501Z,32.19
2023-05-20T03:04:03.568Z,31.27
2023-05-20T03:06:33.294Z,30.89
2023-05-20T03:08:59.885Z,32.29
2023-05-20T03:11:26.585Z,31.73
2023-05-20T03:13:53.404Z,32.42
2023-05-20T03:16:20.118Z,32.76
2023-05-20T03:18:46.769Z,32.59
2023-05-20T03:21:13.771Z,32.66
2023-05-20T03:23:43.783Z,33.66
2023-05-20T03:26:10.735Z,33.74
2023-05-20T03:28:37.376Z,33.19
2023-05-20T03:31:04.713Z,33.57
2023-05-20T03:33:34.550Z,33.27
2023-05-20T03:36:01.706Z,33.27
2023-05-20T03:38:29.147Z,33.92
2023-05-20T03:40:55.912Z,33.84
2023-05-20T03:43:22.533Z,33.12
2023-05-20T03:45:49.169Z,33.80
2023-05-20T03:48:16.365Z,34.22
2023-05-20T03:50:43.285Z,34.88
2023-05-20T03:53:10.794Z,34.97
2023-05-20T03:55:40.678Z,35.00
2023-05-20T03:58:08.013Z,34.26
2023-05-20T04:00:34.612Z,33.99
2023-05-20T04:03:01.480Z,33.43
2023-05-20T04:05:29.332Z,34.79
2023-05-20T04:07:57.476Z,33.78
2023-05-20T04:10:24.968Z,33.93
2023-05-20T04:12:53.790Z,33.29
2023-05-20T04:15:23.779Z,33.07
2023-05-20T04:17:54.754Z,33.84
2023-05-20T04:20:21.673Z,33.44
2023-05-20T04:22:49.444Z,33.60
2023-05-20T04:25:17.204Z,33.46
2023-05-20T04:27:44.114Z,32.98
2023-05-20T04:30:11.858Z,33.54
2023-05-20T04:32:41.612Z,33.76
2023-05-20T04:35:11.930Z,34.65
2023-05-20T04:37:42.181Z,34.38
2023-05-20T04:40:10.008Z,34.16
2023-05-20T04:42:37.780Z,34.30
2023-05-20T04:45:05.857Z,33.34
2023-05-20T04:47:38.590Z,34.40
2023-05-20T04:50:16.458Z,34.85
2023-05-20T04:52:43.679Z,34.51
2023-05-20T04:55:12.150Z,33.63
2023-05-20T04:57:43.709Z,33.22
2023-05-20T05:00:12.405Z,33.63
2023-05-20T05:02:40.003Z,34.44
2023-05-20T05:05:07.442Z,34.24
2023-05-20T05:07:34.533Z,34.11
2023-05-20T05:10:01.885Z,33.77
2023-05-20T05:12:32.663Z,33.90
2023-05-20T05:15:00.257Z,32.96
2023-05-20T05:17:30.626Z,32.96
2023-05-20T05:19:58.095Z,33.52
2023-05-20T05:22:26.912Z,34.21
2023-05-20T05:24:55.642Z,33.73
2023-05-20T05:27:22.891Z,34.41
2023-05-20T05:29:49.802Z,34.23
2023-05-20T05:32:17.278Z,34.00
2023-05-20T05:34:44.485Z,34.48
2023-05-20T05:37:11.928Z,34.01
2023-05-20T05:39:39.253Z,33.62
2023-05-20T05:42:06.396Z,34.55
2023-05-20T05:44:34.214Z,33.69
2023-05-20T05:47:01.444Z,33.33
2023-05-20T05:49:28.749Z,33.67
2023-05-20T05:51:56.100Z,32.46
2023-05-20T05:54:23.718Z,30.86
2023-05-20T05:56:54.814Z,30.51
2023-05-20T05:59:21.658Z,29.97
2023-05-20T06:01:51.873Z,28.58
2023-05-20T06:04:19.680Z,29.29
2023-05-20T06:06:48.096Z,28.70
2023-05-20T06:09:16.190Z,27.97
2023-05-20T06:11:44.319Z,27.36
2023-05-20T06:14:11.003Z,27.44
2023-05-20T06:16:38.013Z,27.03
2023-05-20T06:19:05.469Z,27.15
2023-05-20T06:21:32.685Z,25.91
2023-05-20T06:23:59.624Z,24.84
2023-05-20T06:26:26.607Z,24.21
2023-05-20T06:28:53.639Z,24.75
2023-05-20T06:31:20.622Z,25.34
2023-05-20T06:33:48.323Z,24.88
2023-05-20T06:36:15.885Z,24.57
2023-05-20T06:38:42.750Z,24.95
2023-05-20T06:41:11.865Z,25.03
2023-05-20T06:43:42.139Z,23.86
2023-05-20T06:46:27.905Z,24.28
2023-05-20T06:48:59.453Z,24.76
2023-05-20T06:51:28.169Z,25.47
2023-05-20T06:53:55.340Z,25.43
2023-05-20T06:56:22.785Z,24.03
2023-05-20T06:58:49.717Z,22.50
2023-05-20T07:01:18.122Z,22.32
2023-05-20T07:03:47.336Z,22.21
2023-05-20T07:06:14.231Z,22.16
2023-05-20T07:08:41.085Z,21.99
2023-05-20T07:11:08.511Z,21.70
2023-05-20T07:13:35.603Z,22.26
2023-05-20T07:16:02.483Z,22.43
2023-05-20T07:18:29.395Z,21.99
2023-05-20T07:20:57.021Z,23.11
2023-05-20T07:23:42.173Z,23.79
2023-05-20T07:26:09.841Z,24.23
2023-05-20T07:28:38.071Z,25.33
2023-05-20T07:31:05.336Z,25.27
2023-05-20T07:33:41.555Z,24.74
2023-05-20T07:36:10.445Z,24.98
2023-05-20T07:38:41.270Z,25.40
2023-05-20T07:41:13.697Z,24.63
2023-05-20T07:43:40.458Z,25.40
2023-05-20T07:46:08.219Z,24.69
2023-05-20T07:48:34.903Z,24.46
2023-05-20T07:51:01.572Z,25.89
2023-05-20T07:53:28.784Z,25.80
2023-05-20T07:55:56.932Z,26.02
2023-05-20T07:58:27.546Z,25.50
2023-05-20T08:00:54.676Z,25.38
2023-05-20T08:03:22.549Z,25.70
2023-05-20T08:05:58.763Z,26.29
2023-05-20T08:08:26.754Z,25.46
2023-05-20T08:10:59.117Z,27.30
2023-05-20T08:13:27.898Z,27.36
2023-05-20T08:15:54.890Z,27.81
2023-05-20T08:18:22.192Z,28.66
2023-05-20T08:20:49.247Z,28.32
2023-05-20T08:23:16.228Z,27.56
2023-05-20T08:25:43.055Z,28.39
2023-05-20T08:28:11.148Z,28.71
2023-05-20T08:30:38.993Z,28.42
2023-05-20T08:33:07.120Z,29.93
2023-05-20T08:35:34.297Z,30.07
2023-05-20T08:38:02.197Z,29.94
2023-05-20T08:40:30.032Z,29.88
2023-05-20T08:42:59.224Z,30.23
2023-05-20T08:45:28.565Z,30.75
2023-05-20T08:48:01.010Z,30.13
2023-05-20T08:50:27.988Z,29.73
2023-05-20T08:52:54.673Z,30.21
2023-05-20T08:55:26.947Z,30.40
2023-05-20T08:57:58.100Z,30.17
2023-05-20T09:00:28.716Z,29.69
2023-05-20T09:02:58.194Z,28.88
2023-05-20T09:05:27.436Z,28.88
2023-05-20T09:08:06.430Z,30.16
2023-05-20T09:10:33.693Z,29.09
2023-05-20T09:13:02.591Z,28.53
2023-05-20T09:15:29.214Z,29.87
2023-05-20T09:17:55.918Z,29.48
2023-05-20T09:20:23.261Z,29.61
2023-05-20T09:22:55.675Z,31.17
2023-05-20T09:25:23.974Z,29.69
2023-05-20T09:27:50.995Z,29.80
2023-05-20T09:30:23.766Z,29.31
2023-05-20T09:32:57.954Z,29.59
2023-05-20T09:35:26.188Z,29.68
2023-05-20T09:37:55.921Z,29.68
2023-05-20T09:40:29.274Z,29.34
2023-05-20T09:43:04.036Z,29.09
2023-05-20T09:45:31.177Z,30.25
2023-05-20T09:48:00.028Z,29.91
2023-05-20T09:50:28.726Z,30.58
2023-05-20T09:52:55.880Z,30.59
2023-05-20T09:55:24.898Z,30.62
2023-05-20T09:57:53.061Z,30.17
2023-05-20T10:00:21.673Z,30.55
2023-05-20T10:02:51.834Z,30.19
2023-05-20T10:05:24.233Z,30.24
2023-05-20T10:08:12.513Z,29.52
2023-05-20T10:11:04.010Z,29.50
2023-05-20T10:13:48.581Z,29.23
2023-05-20T10:16:40.561Z,29.43
2023-05-20T10:19:30.106Z,30.03
2023-05-20T10:22:04.298Z,30.62
2023-05-20T10:24:40.676Z,30.49
2023-05-20T10:27:12.743Z,31.45
2023-05-20T10:30:21.198Z,30.91
2023-05-20T10:33:03.137Z,31.27
2023-05-20T10:35:30.140Z,31.24
2023-05-20T10:38:12.044Z,31.09
2023-05-20T10:40:39.410Z,31.31
2023-05-20T10:43:28.756Z,31.60
2023-05-20T10:45:57.405Z,32.77
2023-05-20T10:48:32.120Z,33.05
2023-05-20T10:51:04.077Z,33.75
2023-05-20T10:53:39.695Z,33.11
2023-05-20T10:56:06.730Z,33.21
2023-05-20T10:58:38.379Z,34.02
2023-05-20T11:01:05.583Z,33.99
2023-05-20T11:03:34.827Z,34.29
2023-05-20T11:06:01.956Z,33.72
2023-05-20T11:08:31.482Z,34.35
2023-05-20T11:10:58.249Z,34.44
2023-05-20T11:13:26.334Z,33.85
2023-05-20T11:15:53.168Z,33.12
2023-05-20T11:18:20.138Z,32.84
2023-05-20T11:20:47.324Z,32.71
2023-05-20T11:23:15.381Z,32.54
2023-05-20T11:25:42.211Z,32.68
2023-05-20T11:28:15.624Z,33.66
2023-05-20T11:30:43.236Z,33.29
2023-05-20T11:33:12.581Z,32.66
2023-05-20T11:35:53.745Z,33.32
2023-05-20T11:38:21.854Z,33.19
2023-05-20T11:40:54.113Z,32.77
2023-05-20T11:43:22.202Z,32.82
2023-05-20T11:45:55.360Z,32.62
2023-05-20T11:48:22.143Z,32.67
2023-05-20T11:50:48.981Z,32.04
2023-05-20T11:53:20.761Z,32.28
2023-05-20T11:55:53.135Z,33.40
2023-05-20T11:58:21.817Z,30.79
2023-05-20T12:00:53.333Z,32.12
2023-05-20T12:03:24.336Z,32.26
2023-05-20T12:05:51.622Z,31.46
2023-05-20T12:08:18.329Z,31.44
2023-05-20T12:10:45.172Z,31.81
2023-05-20T12:13:13.447Z,32.16
2023-05-20T12:15:40.716Z,32.04
2023-05-20T12:18:07.655Z,31.79
2023-05-20T12:20:34.776Z,31.10
2023-05-20T12:23:02.068Z,31.20
2023-05-20T12:25:29.504Z,31.27
2023-05-20T12:27:56.417Z,31.77
2023-05-20T12:30:24.518Z,32.42
2023-05-20T12:32:52.062Z,31.94
2023-05-20T12:35:46.082Z,31.11
2023-05-20T12:38:12.699Z,32.00
2023-05-20T12:40:39.266Z,30.49
2023-05-20T12:43:06.144Z,32.02
2023-05-20T12:45:33.412Z,31.71
2023-05-20T12:48:00.360Z,29.88
2023-05-20T12:50:28.234Z,30.44
2023-05-20T12:52:55.244Z,31.84
2023-05-20T12:55:22.259Z,30.15
2023-05-20T12:57:49.892Z,30.69
2023-05-20T13:00:17.045Z,30.55
2023-05-20T13:02:44.128Z,30.70
2023-05-20T13:05:11.338Z,30.73
2023-05-20T13:07:38.000Z,31.72
2023-05-20T13:10:05.631Z,33.42
2023-05-20T13:12:32.759Z,32.27
2023-05-20T13:14:59.349Z,32.20
2023-05-20T13:17:26.721Z,33.17
2023-05-20T13:19:53.403Z,32.02
2023-05-20T13:22:20.268Z,31.82
2023-05-20T13:24:46.857Z,32.15
2023-05-20T13:27:14.080Z,32.81
2023-05-20T13:29:41.840Z,34.30
2023-05-20T13:32:08.492Z,34.50
2023-05-20T13:34:35.087Z,33.97
2023-05-20T13:37:01.680Z,33.13
2023-05-20T13:39:28.419Z,33.29
2023-05-20T13:41:55.577Z,33.20
2023-05-20T13:44:22.370Z,32.47
2023-05-20T13:46:49.602Z,32.75
2023-05-20T13:49:16.316Z,32.12
2023-05-20T13:51:43.076Z,32.36
2023-05-20T13:54:09.878Z,31.83
2023-05-20T13:56:37.144Z,31.51
2023-05-20T13:59:04.346Z,32.45
2023-05-20T14:01:34.204Z,33.68
2023-05-20T14:04:02.683Z,32.43
2023-05-20T14:06:30.267Z,32.76
2023-05-20T14:08:57.301Z,31.55
2023-05-20T14:11:24.444Z,33.03
2023-05-20T14:13:51.203Z,33.26
2023-05-20T14:16:18.495Z,33.41
2023-05-20T14:18:45.698Z,31.79
2023-05-20T14:21:12.429Z,30.48
2023-05-20T14:23:41.340Z,31.62
2023-05-20T14:26:08.173Z,32.21
2023-05-20T14:28:34.917Z,33.01
2023-05-20T14:31:01.595Z,34.04
2023-05-20T14:33:28.454Z,34.36
2023-05-20T14:35:55.410Z,32.57
2023-05-20T14:38:22.579Z,32.41
2023-05-20T14:40:49.448Z,32.06
2023-05-20T14:43:16.360Z,32.67
2023-05-20T14:45:46.557Z,32.91
2023-05-20T14:48:13.376Z,31.81
2023-05-20T14:50:40.217Z,32.51
2023-05-20T14:53:06.998Z,31.99
2023-05-20T14:55:34.412Z,31.60
2023-05-20T14:58:01.231Z,32.67
2023-05-20T15:00:28.354Z,33.12
2023-05-20T15:02:55.804Z,32.83
2023-05-20T15:05:22.716Z,32.95
2023-05-20T15:07:50.906Z,34.08
2023-05-20T15:10:17.880Z,34.44
2023-05-20T15:12:45.316Z,33.76
2023-05-20T15:15:12.573Z,33.95
2023-05-20T15:17:39.378Z,33.15
2023-05-20T15:20:06.700Z,33.20
2023-05-20T15:22:33.768Z,32.87
2023-05-20T15:25:00.559Z,33.48
2023-05-20T15:27:27.254Z,33.62
2023-05-20T15:29:53.958Z,33.67
2023-05-20T15:32:20.749Z,33.52
2023-05-20T15:34:47.866Z,34.15
2023-05-20T15:37:14.686Z,33.92
2023-05-20T15:39:41.241Z,34.68
2023-05-20T15:42:07.974Z,33.60
2023-05-20T15:44:36.012Z,33.68
2023-05-20T15:47:02.881Z,34.51
2023-05-20T15:49:29.497Z,34.38
2023-05-20T15:52:02.801Z,33.59
2023-05-20T15:54:31.164Z,34.46
2023-05-20T15:56:58.012Z,33.90
2023-05-20T15:59:25.187Z,34.20
2023-05-20T16:01:51.838Z,34.10
2023-05-20T16:04:18.989Z,34.44
2023-05-20T16:06:45.936Z,34.90
2023-05-20T16:09:12.525Z,35.61
2023-05-20T16:11:39.248Z,35.49
2023-05-20T16:14:05.846Z,34.42
2023-05-20T16:16:35.067Z,34.88
2023-05-20T16:19:02.612Z,34.27
2023-05-20T16:21:29.382Z,34.13
2023-05-20T16:23:56.019Z,33.91
2023-05-20T16:26:23.170Z,33.72
2023-05-20T16:28:50.288Z,33.69
2023-05-20T16:31:17.626Z,34.14
2023-05-20T16:33:44.734Z,34.45
2023-05-20T16:36:12.106Z,34.41
2023-05-20T16:38:39.320Z,34.98
2023-05-20T16:41:06.604Z,35.05
2023-05-20T16:43:33.555Z,34.76
2023-05-20T16:46:00.696Z,34.43
2023-05-20T16:48:27.464Z,34.71
2023-05-20T16:50:54.219Z,34.46
2023-05-20T16:53:21.407Z,34.16
2023-05-20T16:55:48.139Z,34.51
2023-05-20T16:58:14.930Z,34.79
2023-05-20T17:00:41.974Z,34.76
2023-05-20T17:03:09.283Z,34.04
2023-05-20T17:05:36.238Z,34.61
2023-05-20T17:08:02.997Z,34.73
2023-05-20T17:10:30.409Z,34.81
2023-05-20T17:12:57.309Z,35.15
2023-05-20T17:15:25.433Z,34.83
2023-05-20T17:17:52.330Z,34.23
2023-05-20T17:20:19.789Z,33.84
2023-05-20T17:22:46.552Z,32.91
2023-05-20T17:25:13.345Z,33.59
2023-05-20T17:27:41.388Z,33.80
2023-05-20T17:30:08.388Z,35.90
2023-05-20T17:32:35.525Z,35.21
2023-05-20T17:35:02.708Z,33.91
2023-05-20T17:37:30.701Z,33.99
2023-05-20T17:39:57.659Z,33.50
2023-05-20T17:42:25.279Z,33.65
2023-05-20T17:44:52.073Z,33.81
2023-05-20T17:47:21.308Z,33.58
2023-05-20T17:49:48.044Z,34.05
2023-05-20T17:52:15.393Z,33.96
2023-05-20T17:54:42.151Z,34.71
2023-05-20T17:57:08.860Z,34.24
2023-05-20T17:59:41.440Z,34.46
2023-05-20T18:02:08.220Z,34.73
2023-05-20T18:04:34.956Z,34.45
2023-05-20T18:07:04.159Z,33.82
2023-05-20T18:09:31.038Z,34.72
2023-05-20T18:11:58.615Z,34.78
2023-05-20T18:14:26.600Z,35.33
2023-05-20T18:16:54.639Z,35.97
2023-05-20T18:19:21.531Z,35.31
2023-05-20T18:21:48.384Z,36.08
2023-05-20T18:24:16.650Z,35.63
2023-05-20T18:26:43.660Z,34.89
2023-05-20T18:29:13.684Z,34.63
2023-05-20T18:31:43.201Z,34.82
2023-05-20T18:34:10.982Z,34.68
2023-05-20T18:36:37.816Z,34.36
2023-05-20T18:39:05.094Z,34.08
2023-05-20T18:41:45.815Z,34.85
2023-05-20T18:44:14.611Z,34.66
2023-05-20T18:46:41.835Z,34.92
2023-05-20T18:49:10.558Z,34.34
2023-05-20T18:51:38.506Z,34.84
2023-05-20T18:54:06.156Z,35.77
2023-05-20T18:56:33.911Z,35.52
2023-05-20T18:59:00.658Z,35.63
2023-05-20T19:01:28.034Z,36.35
2023-05-20T19:03:54.941Z,35.81
2023-05-20T19:06:22.036Z,37.42
2023-05-20T19:08:49.491Z,35.92
2023-05-20T19:11:16.881Z,36.88
2023-05-20T19:13:43.684Z,35.89
2023-05-20T19:16:11.225Z,35.92
2023-05-20T19:18:38.039Z,35.15
2023-05-20T19:21:04.818Z,35.53
2023-05-20T19:23:32.478Z,34.67
2023-05-20T19:25:59.380Z,34.13
2023-05-20T19:28:26.308Z,34.42
2023-05-20T19:30:53.345Z,33.84
2023-05-20T19:33:20.923Z,33.93
2023-05-20T19:35:47.983Z,34.38
2023-05-20T19:38:15.089Z,34.93
2023-05-20T19:40:45.552Z,34.79
2023-05-20T19:43:12.496Z,35.10
2023-05-20T19:45:39.608Z,34.97
2023-05-20T19:48:07.131Z,35.33
2023-05-20T19:50:34.204Z,34.81
2023-05-20T19:53:03.133Z,35.48
2023-05-20T19:55:30.607Z,35.80
2023-05-20T19:57:57.326Z,36.93
2023-05-20T20:00:24.173Z,36.44
2023-05-20T20:02:51.238Z,37.29
2023-05-20T20:05:18.275Z,36.67
2023-05-20T20:07:45.102Z,37.25
2023-05-20T20:10:12.030Z,37.37
2023-05-20T20:12:38.721Z,37.86
2023-05-20T20:15:05.820Z,36.76
2023-05-20T20:17:33.583Z,37.51
2023-05-20T20:20:00.746Z,36.78
2023-05-20T20:22:28.026Z,37.85
2023-05-20T20:24:55.461Z,37.14
2023-05-20T20:27:23.765Z,37.26
2023-05-20T20:29:51.212Z,37.09
2023-05-20T20:32:18.096Z,37.31
2023-05-20T20:34:45.891Z,37.75
2023-05-20T20:37:14.883Z,37.13
2023-05-20T20:39:41.920Z,37.97
2023-05-20T20:42:08.689Z,38.25
2023-05-20T20:44:35.396Z,38.57
2023-05-20T20:47:04.056Z,38.42
2023-05-20T20:49:32.007Z,38.65
2023-05-20T20:51:58.890Z,37.92
2023-05-20T20:54:26.599Z,38.40
2023-05-20T20:56:56.568Z,39.10
2023-05-20T20:59:26.378Z,37.96
2023-05-20T21:01:53.482Z,38.42
2023-05-20T21:04:20.884Z,39.28
2023-05-20T21:06:47.613Z,38.56
2023-05-20T21:09:14.689Z,38.78
2023-05-20T21:11:45.729Z,39.55
2023-05-20T21:14:13.277Z,39.30
2023-05-20T21:16:40.246Z,38.80
2023-05-20T21:19:06.900Z,38.76
2023-05-20T21:21:33.637Z,38.44
2023-05-20T21:24:00.410Z,38.32
2023-05-20T21:26:26.993Z,37.92
2023-05-20T21:28:53.613Z,38.27
2023-05-20T21:31:20.416Z,39.20
2023-05-20T21:33:47.241Z,37.95
2023-05-20T21:36:13.882Z,37.97
2023-05-20T21:38:40.490Z,38.71
2023-05-20T21:41:07.664Z,38.87
2023-05-20T21:43:36.275Z,38.98
2023-05-20T21:46:03.073Z,38.78
2023-05-20T21:48:29.712Z,40.44
2023-05-20T21:50:56.364Z,40.21
2023-05-20T21:53:23.052Z,41.04
2023-05-20T21:55:49.679Z,40.49
2023-05-20T21:58:16.265Z,39.76
2023-05-20T22:00:43.004Z,40.45
2023-05-20T22:03:09.755Z,39.44
2023-05-20T22:05:37.551Z,39.75
2023-05-20T22:08:04.569Z,41.17
2023-05-20T22:10:33.789Z,39.58
2023-05-20T22:13:01.983Z,39.83
2023-05-20T22:15:28.996Z,39.96
2023-05-20T22:17:55.715Z,40.26
2023-05-20T22:20:22.574Z,41.20
2023-05-20T22:22:49.588Z,41.22
2023-05-20T22:25:17.287Z,40.74
2023-05-20T22:27:44.022Z,40.32
2023-05-20T22:30:12.115Z,40.35
2023-05-20T22:32:39.263Z,40.00
2023-05-20T22:35:06.618Z,41.11
2023-05-20T22:37:33.438Z,40.86
2023-05-20T22:40:00.123Z,40.31
2023-05-20T22:42:26.801Z,42.07
2023-05-20T22:44:53.398Z,41.58
2023-05-20T22:47:20.270Z,42.15
2023-05-20T22:49:47.123Z,42.32
2023-05-20T22:52:14.406Z,42.78
2023-05-20T22:54:41.143Z,42.66
2023-05-20T22:57:08.012Z,43.05
2023-05-20T22:59:36.486Z,42.92
2023-05-20T23:02:04.248Z,41.09
2023-05-20T23:04:31.002Z,41.25
2023-05-20T23:06:59.453Z,41.10
2023-05-20T23:09:26.407Z,39.63
2023-05-20T23:11:53.028Z,40.50
2023-05-20T23:14:19.993Z,40.71
2023-05-20T23:16:46.741Z,41.94
2023-05-20T23:19:13.649Z,42.13
2023-05-20T23:21:40.600Z,41.22
2023-05-20T23:24:07.284Z,41.11
2023-05-20T23:26:34.500Z,41.76
2023-05-20T23:29:01.867Z,41.40
2023-05-20T23:31:29.923Z,41.50
2023-05-20T23:33:59.525Z,41.64
2023-05-20T23:36:28.952Z,41.80
2023-05-20T23:38:58.407Z,41.39
2023-05-20T23:41:25.309Z,42.16
2023-05-20T23:43:51.975Z,42.37
2023-05-20T23:46:19.585Z,42.49
2023-05-20T23:48:48.283Z,43.11
2023-05-20T23:51:16.196Z,43.88
2023-05-20T23:53:43.682Z,42.10
2023-05-20T23:56:10.659Z,42.86
2023-05-20T23:58:37.675Z,42.40
